Forside
METAR-TAF:

METAR-TAF

Lufthavne :

Rawalpindi, Pakistan

Breddekreds: 33-37N, længdekreds: 073-06E, højde: 507 m

Aktuelle vejr

Denne rapport blev lavet for 21 minutter siden, kl. 17:00 UTC
Vind stille
Temperatur 12°C
Fugtighed 71%
Tryk 1015 hPa
Sigt: 5000 m
tåge/dis

METAR: OPRN 231700Z 00000KT 5000 HZ NSC 12/07 Q1015 NOSIG RMK A2998

Tid: 22:21 (17:21 UTC)

Vejrudsigter

Denne rapport blev lavet for 7 timer og 51 minutter siden, kl. 09:30 UTC
Foreløbig gælder fra 23 på 12 UTC til 24 på 18 UTC
Vind 10 kt fra vest
Sigt: 6000 m
Nogle få skyer i en højde af 12000 ft
Brudte skyer i en højde af 18000 ft
Midlertidig
fra 24 på 00 UTC til 24 på 04 UTC
Sigt: 2000 m
dis

TAF: OPRN 230930Z 2312/2418 27010KT 6000 FEW120 BKN180 TEMPO 2400/2404 2000 BR

Vejrobservationer og prognoser fra mere end 4000 lufthavne (METAR og TAF).

De gule og røde prikker repræsenterer de meteorologiske stationer.

Flyt musen over at se navnet på stationen.

Så klik over at se vejr observationer og prognoser.

At skifte det kort: Klik på de grønne knapper med et sort kors for at zoome ind; på den grønne knap med en bindestreg for at zoome ud; eller på de grønne pile for tilstødende kort.


METAR-TAF: